Mont Saint Michel — FNMT — position and weather

sailwx.info

Track history (hours):
 
Tides and Currents Weather Stations Pressure Air Temp Water Temp Dewpoint Dewpoint Depression Visibility Wind Speed Wind Dir Waves Ship Positions

Mont Saint Michel

Last reported at 2015-Jan-25 23:33 UTC. Time now 2015-Jan-26 00:26 UTC.
Position N 50°38' W 000°57'.

Length 173 m; beam 29 m.

Type: Ship. MMSI: 227023100.

Date/timePositionNaut miles runAvg speedWind from/ knotsBaromVisibWave heightAir tempDewpointWater temp
2015-Jan-25 23:33N 50°38' W 000°57'1312.5
2015-Jan-25 22:33N 50°49' W 001°06'0 0.1
2015-Jan-25 21:33N 50°49' W 001°06'4 4.2
2015-Jan-25 20:34N 50°45' W 001°05'1716.8
2015-Jan-25 19:33N 50°30' W 000°52'3718.6
2015-Jan-25 17:33N 49°55' W 000°31'2020.0
2015-Jan-25 16:33N 49°36' W 000°21'1919.0
2015-Jan-25 15:33N 49°17' W 000°15'0 0.1
2015-Jan-25 14:33N 49°17' W 000°15'2 1.8
2015-Jan-25 13:33N 49°19' W 000°15'1919.0
2015-Jan-25 12:33N 49°37' W 000°24'4319.7
2015-Jan-25 10:21N 50°18' W 000°45'1619.9
2015-Jan-25 09:33N 50°33' W 000°54'1716.5
2015-Jan-25 08:33N 50°48' W 001°07'1 1.3
2015-Jan-25 07:33N 50°49' W 001°06'1 0.7
2015-Jan-25 06:33N 50°48' W 001°07'1312.9
2015-Jan-25 05:33N 50°37' W 000°58'1615.7
2015-Jan-25 04:33N 50°22' W 000°49'1312.2
2015-Jan-25 03:31N 50°11' W 000°41'1811.9
2015-Jan-25 02:03N 49°54' W 000°32'611.4
2015-Jan-25 01:34N 49°49' W 000°30'1111.4
2015-Jan-25 00:34N 49°38' W 000°24'1111.2
2015-Jan-24 23:34N 49°27' W 000°18'1010.2
2015-Jan-24 22:33N 49°17' W 000°15'0 0.0
2015-Jan-24 21:34N 49°17' W 000°15'1 0.7
2015-Jan-24 20:34N 49°18' W 000°15'1717.2
2015-Jan-24 19:34N 49°34' W 000°22'1918.8
2015-Jan-24 18:34N 49°52' W 000°33'2718.3
2015-Jan-24 17:04N 50°18' W 000°47'1019.1
2015-Jan-24 16:33N 50°27' W 000°52'1818.4
2015-Jan-24 15:34N 50°44' W 001°04'5 5.1
2015-Jan-24 14:33N 50°49' W 001°06'0 0.2
2015-Jan-24 13:33N 50°49' W 001°06'1615.9
2015-Jan-24 12:33N 50°34' W 000°55'5317.5
2015-Jan-24 09:33N 49°44' W 000°31'1716.7
2015-Jan-24 08:33N 49°29' W 000°20'1211.9
2015-Jan-24 07:32N 49°17' W 000°15'0 0.0
2015-Jan-24 06:33N 49°17' W 000°15'0 0.1
2015-Jan-24 05:33N 49°17' W 000°15'1211.8
2015-Jan-24 04:33N 49°29' W 000°18'1111.1
2015-Jan-24 03:33N 49°39' W 000°23'4013.1
2015-Jan-24 00:30N 50°17' W 000°43'1415.3
2015-Jan-23 23:34N 50°30' W 000°53'1616.3
2015-Jan-23 22:33N 50°45' W 001°05'4 4.0
2015-Jan-23 21:33N 50°49' W 001°06'0 0.0
2015-Jan-23 20:33N 50°49' W 001°06'0 0.0
2015-Jan-23 19:33N 50°49' W 001°06'5 4.7
2015-Jan-23 18:34N 50°44' W 001°04'1515.0
2015-Jan-23 17:34N 50°30' W 000°54'3817.7
2015-Jan-23 15:23N 49°54' W 000°34'1518.3
2015-Jan-23 14:33N 49°40' W 000°25'1817.8
2015-Jan-23 13:33N 49°23' W 000°16'6 6.1
2015-Jan-23 12:33N 49°17' W 000°15'0 0.0
2015-Jan-23 11:33N 49°17' W 000°15'0 0.0
2015-Jan-23 10:33N 49°17' W 000°15'0 0.0
2015-Jan-23 09:33N 49°17' W 000°15'0 0.0
2015-Jan-23 08:33N 49°17' W 000°15'0 0.0
2015-Jan-23 07:33N 49°17' W 000°15'0 0.0
2015-Jan-23 06:33N 49°17' W 000°15'9 8.7
2015-Jan-23 05:33N 49°26' W 000°17'1111.5
2015-Jan-23 04:33N 49°37' W 000°23'1211.4
2015-Jan-23 03:32N 49°47' W 000°31'4314.5
2015-Jan-23 00:33N 50°28' W 000°54'1817.6
2015-Jan-22 23:34N 50°44' W 001°04'5 4.8
2015-Jan-22 22:34N 50°49' W 001°06'0 0.0
2015-Jan-22 21:34N 50°49' W 001°06'5 4.7
2015-Jan-22 20:33N 50°44' W 001°04'1717.0
2015-Jan-22 19:33N 50°28' W 000°56'4219.2
2015-Jan-22 17:23N 49°49' W 000°33'1619.8
2015-Jan-22 16:33N 49°34' W 000°23'1717.4
2015-Jan-22 15:33N 49°17' W 000°15'0 0.0
2015-Jan-22 14:33N 49°17' W 000°15'0 0.1
2015-Jan-22 13:33N 49°17' W 000°15'1717.0
2015-Jan-22 12:34N 49°34' W 000°18'4819.7
2015-Jan-22 10:08N 50°19' W 000°41'1119.7
2015-Jan-22 09:33N 50°29' W 000°50'1918.8
2015-Jan-22 08:33N 50°45' W 001°05'3 3.3
2015-Jan-22 07:33N 50°49' W 001°06'0 0.1
2015-Jan-22 06:33N 50°49' W 001°06'1312.2
2015-Jan-22 05:32N 50°37' W 000°58'1413.9
2015-Jan-22 04:33N 50°24' W 000°52'3612.0
2015-Jan-22 01:33N 49°50' W 000°32'1312.7
2015-Jan-22 00:33N 49°39' W 000°25'1211.9
2015-Jan-21 23:33N 49°27' W 000°18'811.6
2015-Jan-21 22:50N 49°20' W 000°14'112.4
2015-Jan-21 22:46N 49°19' W 000°15'1 6.4
2015-Jan-21 22:33N 49°17' W 000°15'0 0.0
2015-Jan-21 21:33N 49°17' W 000°15'8 7.9
2015-Jan-21 20:33N 49°25' W 000°17'2222.3
2015-Jan-21 19:33N 49°45' W 000°31'4421.8
2015-Jan-21 17:34N 50°27' W 000°53'1919.0
2015-Jan-21 16:33N 50°44' W 001°04'4 4.5
2015-Jan-21 15:33N 50°49' W 001°06'0 0.1
2015-Jan-21 14:33N 50°49' W 001°06'1514.6
2015-Jan-21 13:34N 50°35' W 000°57'4621.1
2015-Jan-21 11:23N 49°53' W 000°28'1821.2
2015-Jan-21 10:33N 49°36' W 000°21'1919.4
2015-Jan-21 09:33N 49°17' W 000°15'0 0.0
2015-Jan-21 08:33N 49°17' W 000°15'0 0.0
2015-Jan-21 07:33N 49°17' W 000°15'0 0.0
2015-Jan-21 06:33N 49°17' W 000°15'0 0.1
2015-Jan-21 05:34N 49°17' W 000°15'1615.7
2015-Jan-21 04:33N 49°33' W 000°20'1919.3
2015-Jan-21 03:33N 49°51' W 000°31'3616.2
2015-Jan-21 01:19N 50°25' W 000°51'1013.2
2015-Jan-21 00:33N 50°34' W 000°57'1212.0
2015-Jan-20 23:34N 50°45' W 001°05'4 4.0
2015-Jan-20 22:33N 50°49' W 001°06'0 0.0
2015-Jan-20 21:34N 50°49' W 001°06'4 3.7
2015-Jan-20 20:34N 50°45' W 001°05'1918.9
2015-Jan-20 19:33N 50°28' W 000°54'4120.4
2015-Jan-20 17:33N 49°49' W 000°35'2020.3
2015-Jan-20 16:33N 49°30' W 000°21'1413.6
2015-Jan-20 15:33N 49°17' W 000°15'0 0.0
2015-Jan-20 14:33N 49°17' W 000°15'3 2.6
2015-Jan-20 13:33N 49°20' W 000°14'1919.0
2015-Jan-20 12:33N 49°39' W 000°21'4618.8
2015-Jan-20 10:06N 50°22' W 000°45'1019.2
2015-Jan-20 09:34N 50°31' W 000°53'1817.8
2015-Jan-20 08:33N 50°47' W 001°06'2 1.7
2015-Jan-20 07:33N 50°49' W 001°06'0 0.1
2015-Jan-20 06:34N 50°49' W 001°06'1211.9
2015-Jan-20 05:33N 50°38' W 000°57'1111.0
2015-Jan-20 04:33N 50°28' W 000°50'3511.1
2015-Jan-20 01:24N 49°55' W 000°34'1012.2
2015-Jan-20 00:33N 49°45' W 000°29'1212.5
2015-Jan-19 23:34N 49°34' W 000°19'1211.6
2015-Jan-19 22:33N 49°23' W 000°15'6 5.6
2015-Jan-19 21:34N 49°17' W 000°15'0 0.0
2015-Jan-19 20:33N 49°17' W 000°15'1111.3
2015-Jan-19 19:33N 49°28' W 000°21'1818.1
2015-Jan-19 18:33N 49°44' W 000°33'4118.5
2015-Jan-19 16:21N 50°22' W 000°55'1619.6
2015-Jan-19 15:34N 50°38' W 000°58'1211.7
2015-Jan-19 14:33N 50°49' W 001°06'0 0.0
2015-Jan-19 13:33N 50°49' W 001°06'4 4.0
2015-Jan-19 12:33N 50°45' W 001°05'1918.9
2015-Jan-19 11:33N 50°28' W 000°52'3818.9
2015-Jan-19 09:33N 49°52' W 000°32'1818.1
2015-Jan-19 08:33N 49°35' W 000°22'1818.4
2015-Jan-19 07:33N 49°17' W 000°15'0 0.1
2015-Jan-19 06:33N 49°17' W 000°15'0 0.0
2015-Jan-19 05:33N 49°17' W 000°15'1616.3
2015-Jan-19 04:33N 49°33' W 000°22'1212.1
2015-Jan-19 03:33N 49°44' W 000°29'4314.3
2015-Jan-19 00:33N 50°25' W 000°52'1616.0
2015-Jan-18 23:33N 50°40' W 000°60'10 9.7
2015-Jan-18 22:34N 50°49' W 001°06'0 0.0
2015-Jan-18 21:34N 50°49' W 001°06'4 3.6
2015-Jan-18 20:34N 50°45' W 001°05'1817.9
2015-Jan-18 19:33N 50°30' W 000°51'3919.4
2015-Jan-18 17:33N 49°53' W 000°32'1919.1
2015-Jan-18 16:33N 49°35' W 000°22'1717.4
2015-Jan-18 15:33N 49°18' W 000°15'1 0.6
2015-Jan-18 14:34N 49°17' W 000°15'2 2.2
2015-Jan-18 13:33N 49°20' W 000°14'1817.6
2015-Jan-18 12:33N 49°36' W 000°23'5718.6
2015-Jan-18 09:30N 50°29' W 000°55'1818.7
2015-Jan-18 08:33N 50°46' W 001°05'3 3.2
2015-Jan-18 07:33N 50°49' W 001°06'0 0.1
2015-Jan-18 06:34N 50°49' W 001°06'1211.7
2015-Jan-18 05:33N 50°38' W 000°58'1010.3
2015-Jan-18 04:34N 50°29' W 000°51'4411.1
2015-Jan-18 00:34N 49°47' W 000°30'1212.1
2015-Jan-17 23:33N 49°35' W 000°23'1212.5
2015-Jan-17 22:33N 49°24' W 000°16'6 6.4
2015-Jan-17 21:33N 49°17' W 000°15'0 0.0
2015-Jan-17 20:33N 49°17' W 000°15'1010.5
2015-Jan-17 19:33N 49°28' W 000°18'1818.3
2015-Jan-17 18:33N 49°45' W 000°26'3718.5
2015-Jan-17 16:33N 50°20' W 000°45'1918.6
2015-Jan-17 15:33N 50°37' W 000°57'1312.9
2015-Jan-17 14:33N 50°49' W 001°06'0 0.0
2015-Jan-17 13:33N 50°49' W 001°06'5 4.9
2015-Jan-17 12:33N 50°44' W 001°04'1919.1
2015-Jan-17 11:33N 50°27' W 000°51'3917.7
2015-Jan-17 09:20N 49°50' W 000°28'1417.9
2015-Jan-17 08:33N 49°37' W 000°21'1918.5
2015-Jan-17 07:33N 49°19' W 000°15'1 1.4
2015-Jan-17 06:33N 49°17' W 000°15'0 0.1
2015-Jan-17 05:33N 49°17' W 000°15'1515.0
2015-Jan-17 04:33N 49°32' W 000°19'1716.4
2015-Jan-17 03:32N 49°47' W 000°30'3516.1
2015-Jan-17 01:23N 50°19' W 000°50'1316.0
2015-Jan-17 00:33N 50°32' W 000°56'1414.3
2015-Jan-16 23:34N 50°45' W 001°05'4 3.8
2015-Jan-16 22:34N 50°49' W 001°06'0 0.0
2015-Jan-16 21:34N 50°49' W 001°06'6 5.7
2015-Jan-16 20:33N 50°43' W 001°02'1817.9
2015-Jan-16 19:34N 50°27' W 000°52'4018.4
2015-Jan-16 17:24N 49°49' W 000°31'1517.7
2015-Jan-16 16:33N 49°36' W 000°22'1818.1
2015-Jan-16 15:33N 49°18' W 000°15'1 0.7
2015-Jan-16 14:29N 49°17' W 000°15'0 0.0
2015-Jan-16 13:33N 49°17' W 000°15'0 0.0
2015-Jan-16 12:33N 49°17' W 000°15'0 0.0
2015-Jan-16 11:29N 49°17' W 000°15'0 0.0
2015-Jan-16 10:33N 49°17' W 000°15'0 0.0
2015-Jan-16 09:33N 49°17' W 000°15'0 0.0
2015-Jan-16 08:32N 49°17' W 000°15'0 0.0
2015-Jan-16 07:33N 49°17' W 000°15'0 0.0
2015-Jan-16 06:33N 49°17' W 000°15'0 0.0
2015-Jan-16 05:33N 49°17' W 000°15'2 2.0
2015-Jan-16 04:33N 49°19' W 000°15'1817.7
2015-Jan-16 03:33N 49°37' W 000°21'4218.0
2015-Jan-16 01:12N 50°16' W 000°44'1219.3
2015-Jan-16 00:33N 50°27' W 000°53'  
Track history (hours):
 
Tides and Currents Weather Stations Pressure Air Temp Water Temp Dewpoint Dewpoint Depression Visibility Wind Speed Wind Dir Waves Ship Positions

Mont Saint Michel

Last reported at 2015-Jan-25 23:33 UTC. Time now 2015-Jan-26 00:26 UTC.
Position N 50°38' W 000°57'.

Length 173 m; beam 29 m.

Type: Ship. MMSI: 227023100.

Date/timePositionNaut miles runAvg speedWind from/ knotsBaromVisibWave heightAir tempDewpointWater temp
2015-Jan-25 23:33N 50°38' W 000°57'1312.5
2015-Jan-25 22:33N 50°49' W 001°06'0 0.1
2015-Jan-25 21:33N 50°49' W 001°06'4 4.2
2015-Jan-25 20:34N 50°45' W 001°05'1716.8
2015-Jan-25 19:33N 50°30' W 000°52'3718.6
2015-Jan-25 17:33N 49°55' W 000°31'2020.0
2015-Jan-25 16:33N 49°36' W 000°21'1919.0
2015-Jan-25 15:33N 49°17' W 000°15'0 0.1
2015-Jan-25 14:33N 49°17' W 000°15'2 1.8
2015-Jan-25 13:33N 49°19' W 000°15'1919.0
2015-Jan-25 12:33N 49°37' W 000°24'4319.7
2015-Jan-25 10:21N 50°18' W 000°45'1619.9
2015-Jan-25 09:33N 50°33' W 000°54'1716.5
2015-Jan-25 08:33N 50°48' W 001°07'1 1.3
2015-Jan-25 07:33N 50°49' W 001°06'1 0.7
2015-Jan-25 06:33N 50°48' W 001°07'1312.9
2015-Jan-25 05:33N 50°37' W 000°58'1615.7
2015-Jan-25 04:33N 50°22' W 000°49'1312.2
2015-Jan-25 03:31N 50°11' W 000°41'1811.9
2015-Jan-25 02:03N 49°54' W 000°32'611.4
2015-Jan-25 01:34N 49°49' W 000°30'1111.4
2015-Jan-25 00:34N 49°38' W 000°24'1111.2
2015-Jan-24 23:34N 49°27' W 000°18'1010.2
2015-Jan-24 22:33N 49°17' W 000°15'0 0.0
2015-Jan-24 21:34N 49°17' W 000°15'1 0.7
2015-Jan-24 20:34N 49°18' W 000°15'1717.2
2015-Jan-24 19:34N 49°34' W 000°22'1918.8
2015-Jan-24 18:34N 49°52' W 000°33'2718.3
2015-Jan-24 17:04N 50°18' W 000°47'1019.1
2015-Jan-24 16:33N 50°27' W 000°52'1818.4
2015-Jan-24 15:34N 50°44' W 001°04'5 5.1
2015-Jan-24 14:33N 50°49' W 001°06'0 0.2
2015-Jan-24 13:33N 50°49' W 001°06'1615.9
2015-Jan-24 12:33N 50°34' W 000°55'5317.5
2015-Jan-24 09:33N 49°44' W 000°31'1716.7
2015-Jan-24 08:33N 49°29' W 000°20'1211.9
2015-Jan-24 07:32N 49°17' W 000°15'0 0.0
2015-Jan-24 06:33N 49°17' W 000°15'0 0.1
2015-Jan-24 05:33N 49°17' W 000°15'1211.8
2015-Jan-24 04:33N 49°29' W 000°18'1111.1
2015-Jan-24 03:33N 49°39' W 000°23'4013.1
2015-Jan-24 00:30N 50°17' W 000°43'1415.3
2015-Jan-23 23:34N 50°30' W 000°53'1616.3
2015-Jan-23 22:33N 50°45' W 001°05'4 4.0
2015-Jan-23 21:33N 50°49' W 001°06'0 0.0
2015-Jan-23 20:33N 50°49' W 001°06'0 0.0
2015-Jan-23 19:33N 50°49' W 001°06'5 4.7
2015-Jan-23 18:34N 50°44' W 001°04'1515.0
2015-Jan-23 17:34N 50°30' W 000°54'3817.7
2015-Jan-23 15:23N 49°54' W 000°34'1518.3
2015-Jan-23 14:33N 49°40' W 000°25'1817.8
2015-Jan-23 13:33N 49°23' W 000°16'6 6.1
2015-Jan-23 12:33N 49°17' W 000°15'0 0.0
2015-Jan-23 11:33N 49°17' W 000°15'0 0.0
2015-Jan-23 10:33N 49°17' W 000°15'0 0.0
2015-Jan-23 09:33N 49°17' W 000°15'0 0.0
2015-Jan-23 08:33N 49°17' W 000°15'0 0.0
2015-Jan-23 07:33N 49°17' W 000°15'0 0.0
2015-Jan-23 06:33N 49°17' W 000°15'9 8.7
2015-Jan-23 05:33N 49°26' W 000°17'1111.5
2015-Jan-23 04:33N 49°37' W 000°23'1211.4
2015-Jan-23 03:32N 49°47' W 000°31'4314.5
2015-Jan-23 00:33N 50°28' W 000°54'1817.6
2015-Jan-22 23:34N 50°44' W 001°04'5 4.8
2015-Jan-22 22:34N 50°49' W 001°06'0 0.0
2015-Jan-22 21:34N 50°49' W 001°06'5 4.7
2015-Jan-22 20:33N 50°44' W 001°04'1717.0
2015-Jan-22 19:33N 50°28' W 000°56'4219.2
2015-Jan-22 17:23N 49°49' W 000°33'1619.8
2015-Jan-22 16:33N 49°34' W 000°23'1717.4
2015-Jan-22 15:33N 49°17' W 000°15'0 0.0
2015-Jan-22 14:33N 49°17' W 000°15'0 0.1
2015-Jan-22 13:33N 49°17' W 000°15'1717.0
2015-Jan-22 12:34N 49°34' W 000°18'4819.7
2015-Jan-22 10:08N 50°19' W 000°41'1119.7
2015-Jan-22 09:33N 50°29' W 000°50'1918.8
2015-Jan-22 08:33N 50°45' W 001°05'3 3.3
2015-Jan-22 07:33N 50°49' W 001°06'0 0.1
2015-Jan-22 06:33N 50°49' W 001°06'1312.2
2015-Jan-22 05:32N 50°37' W 000°58'1413.9
2015-Jan-22 04:33N 50°24' W 000°52'3612.0
2015-Jan-22 01:33N 49°50' W 000°32'1312.7
2015-Jan-22 00:33N 49°39' W 000°25'1211.9
2015-Jan-21 23:33N 49°27' W 000°18'811.6
2015-Jan-21 22:50N 49°20' W 000°14'112.4
2015-Jan-21 22:46N 49°19' W 000°15'1 6.4
2015-Jan-21 22:33N 49°17' W 000°15'0 0.0
2015-Jan-21 21:33N 49°17' W 000°15'8 7.9
2015-Jan-21 20:33N 49°25' W 000°17'2222.3
2015-Jan-21 19:33N 49°45' W 000°31'4421.8
2015-Jan-21 17:34N 50°27' W 000°53'1919.0
2015-Jan-21 16:33N 50°44' W 001°04'4 4.5
2015-Jan-21 15:33N 50°49' W 001°06'0 0.1
2015-Jan-21 14:33N 50°49' W 001°06'1514.6
2015-Jan-21 13:34N 50°35' W 000°57'4621.1
2015-Jan-21 11:23N 49°53' W 000°28'1821.2
2015-Jan-21 10:33N 49°36' W 000°21'1919.4
2015-Jan-21 09:33N 49°17' W 000°15'0 0.0
2015-Jan-21 08:33N 49°17' W 000°15'0 0.0
2015-Jan-21 07:33N 49°17' W 000°15'0 0.0
2015-Jan-21 06:33N 49°17' W 000°15'0 0.1
2015-Jan-21 05:34N 49°17' W 000°15'1615.7
2015-Jan-21 04:33N 49°33' W 000°20'1919.3
2015-Jan-21 03:33N 49°51' W 000°31'3616.2
2015-Jan-21 01:19N 50°25' W 000°51'1013.2
2015-Jan-21 00:33N 50°34' W 000°57'1212.0
2015-Jan-20 23:34N 50°45' W 001°05'4 4.0
2015-Jan-20 22:33N 50°49' W 001°06'0 0.0
2015-Jan-20 21:34N 50°49' W 001°06'4 3.7
2015-Jan-20 20:34N 50°45' W 001°05'1918.9
2015-Jan-20 19:33N 50°28' W 000°54'4120.4
2015-Jan-20 17:33N 49°49' W 000°35'2020.3
2015-Jan-20 16:33N 49°30' W 000°21'1413.6
2015-Jan-20 15:33N 49°17' W 000°15'0 0.0
2015-Jan-20 14:33N 49°17' W 000°15'3 2.6
2015-Jan-20 13:33N 49°20' W 000°14'1919.0
2015-Jan-20 12:33N 49°39' W 000°21'4618.8
2015-Jan-20 10:06N 50°22' W 000°45'1019.2
2015-Jan-20 09:34N 50°31' W 000°53'1817.8
2015-Jan-20 08:33N 50°47' W 001°06'2 1.7
2015-Jan-20 07:33N 50°49' W 001°06'0 0.1
2015-Jan-20 06:34N 50°49' W 001°06'1211.9
2015-Jan-20 05:33N 50°38' W 000°57'1111.0
2015-Jan-20 04:33N 50°28' W 000°50'3511.1
2015-Jan-20 01:24N 49°55' W 000°34'1012.2
2015-Jan-20 00:33N 49°45' W 000°29'1212.5
2015-Jan-19 23:34N 49°34' W 000°19'1211.6
2015-Jan-19 22:33N 49°23' W 000°15'6 5.6
2015-Jan-19 21:34N 49°17' W 000°15'0 0.0
2015-Jan-19 20:33N 49°17' W 000°15'1111.3
2015-Jan-19 19:33N 49°28' W 000°21'1818.1
2015-Jan-19 18:33N 49°44' W 000°33'4118.5
2015-Jan-19 16:21N 50°22' W 000°55'1619.6
2015-Jan-19 15:34N 50°38' W 000°58'1211.7
2015-Jan-19 14:33N 50°49' W 001°06'0 0.0
2015-Jan-19 13:33N 50°49' W 001°06'4 4.0
2015-Jan-19 12:33N 50°45' W 001°05'1918.9
2015-Jan-19 11:33N 50°28' W 000°52'3818.9
2015-Jan-19 09:33N 49°52' W 000°32'1818.1
2015-Jan-19 08:33N 49°35' W 000°22'1818.4
2015-Jan-19 07:33N 49°17' W 000°15'0 0.1
2015-Jan-19 06:33N 49°17' W 000°15'0 0.0
2015-Jan-19 05:33N 49°17' W 000°15'1616.3
2015-Jan-19 04:33N 49°33' W 000°22'1212.1
2015-Jan-19 03:33N 49°44' W 000°29'4314.3
2015-Jan-19 00:33N 50°25' W 000°52'1616.0
2015-Jan-18 23:33N 50°40' W 000°60'10 9.7
2015-Jan-18 22:34N 50°49' W 001°06'0 0.0
2015-Jan-18 21:34N 50°49' W 001°06'4 3.6
2015-Jan-18 20:34N 50°45' W 001°05'1817.9
2015-Jan-18 19:33N 50°30' W 000°51'3919.4
2015-Jan-18 17:33N 49°53' W 000°32'1919.1
2015-Jan-18 16:33N 49°35' W 000°22'1717.4
2015-Jan-18 15:33N 49°18' W 000°15'1 0.6
2015-Jan-18 14:34N 49°17' W 000°15'2 2.2
2015-Jan-18 13:33N 49°20' W 000°14'1817.6
2015-Jan-18 12:33N 49°36' W 000°23'5718.6
2015-Jan-18 09:30N 50°29' W 000°55'1818.7
2015-Jan-18 08:33N 50°46' W 001°05'3 3.2
2015-Jan-18 07:33N 50°49' W 001°06'0 0.1
2015-Jan-18 06:34N 50°49' W 001°06'1211.7
2015-Jan-18 05:33N 50°38' W 000°58'1010.3
2015-Jan-18 04:34N 50°29' W 000°51'4411.1
2015-Jan-18 00:34N 49°47' W 000°30'1212.1
2015-Jan-17 23:33N 49°35' W 000°23'1212.5
2015-Jan-17 22:33N 49°24' W 000°16'6 6.4
2015-Jan-17 21:33N 49°17' W 000°15'0 0.0
2015-Jan-17 20:33N 49°17' W 000°15'1010.5
2015-Jan-17 19:33N 49°28' W 000°18'1818.3
2015-Jan-17 18:33N 49°45' W 000°26'3718.5
2015-Jan-17 16:33N 50°20' W 000°45'1918.6
2015-Jan-17 15:33N 50°37' W 000°57'1312.9
2015-Jan-17 14:33N 50°49' W 001°06'0 0.0
2015-Jan-17 13:33N 50°49' W 001°06'5 4.9
2015-Jan-17 12:33N 50°44' W 001°04'1919.1
2015-Jan-17 11:33N 50°27' W 000°51'3917.7
2015-Jan-17 09:20N 49°50' W 000°28'1417.9
2015-Jan-17 08:33N 49°37' W 000°21'1918.5
2015-Jan-17 07:33N 49°19' W 000°15'1 1.4
2015-Jan-17 06:33N 49°17' W 000°15'0 0.1
2015-Jan-17 05:33N 49°17' W 000°15'1515.0
2015-Jan-17 04:33N 49°32' W 000°19'1716.4
2015-Jan-17 03:32N 49°47' W 000°30'3516.1
2015-Jan-17 01:23N 50°19' W 000°50'1316.0
2015-Jan-17 00:33N 50°32' W 000°56'1414.3
2015-Jan-16 23:34N 50°45' W 001°05'4 3.8
2015-Jan-16 22:34N 50°49' W 001°06'0 0.0
2015-Jan-16 21:34N 50°49' W 001°06'6 5.7
2015-Jan-16 20:33N 50°43' W 001°02'1817.9
2015-Jan-16 19:34N 50°27' W 000°52'4018.4
2015-Jan-16 17:24N 49°49' W 000°31'1517.7
2015-Jan-16 16:33N 49°36' W 000°22'1818.1
2015-Jan-16 15:33N 49°18' W 000°15'1 0.7
2015-Jan-16 14:29N 49°17' W 000°15'0 0.0
2015-Jan-16 13:33N 49°17' W 000°15'0 0.0
2015-Jan-16 12:33N 49°17' W 000°15'0 0.0
2015-Jan-16 11:29N 49°17' W 000°15'0 0.0
2015-Jan-16 10:33N 49°17' W 000°15'0 0.0
2015-Jan-16 09:33N 49°17' W 000°15'0 0.0
2015-Jan-16 08:32N 49°17' W 000°15'0 0.0
2015-Jan-16 07:33N 49°17' W 000°15'0 0.0
2015-Jan-16 06:33N 49°17' W 000°15'0 0.0
2015-Jan-16 05:33N 49°17' W 000°15'2 2.0
2015-Jan-16 04:33N 49°19' W 000°15'1817.7
2015-Jan-16 03:33N 49°37' W 000°21'4218.0
2015-Jan-16 01:12N 50°16' W 000°44'1219.3
2015-Jan-16 00:33N 50°27' W 000°53'  

Dump ship's entire track history